Data for 08/12/2017

Time Sea-Level Adjusted Pressure Absolute Pressure Temperature Relative Humidity Dew Point   
(mb) (inHg) (mb) (inHg) (C) (F) (%) (C) (F)
00:05 1021 30.15 850 25.1 16.2 61.1 48 5.1 41.3
00:10 1021 30.15 850 25.1 16.2 61.2 47 5.1 41.2
00:15 1021 30.15 850 25.1 16.3 61.3 47 4.9 40.9
00:20 1021 30.15 850 25.1 16.4 61.5 47 5 41
00:25 1021 30.15 850 25.1 16.4 61.5 47 5 41.1
00:30 1021 30.15 850 25.1 16.3 61.3 47 5.1 41.3
00:35 1021 30.15 850 25.1 16.2 61.2 48 5.3 41.6
00:40 1021 30.15 850 25.1 16 60.9 49 5.5 41.8
00:45 1021 30.15 850 25.1 15.7 60.3 51 5.7 42.3
00:50 1021 30.15 850 25.1 15.4 59.8 51 5.5 42
00:55 1021 30.15 850 25.1 15.5 59.8 51 5.4 41.7
01:00 1021 30.15 850 25.1 15.5 59.8 51 5.5 41.9
01:05 1021 30.15 850 25.1 15.4 59.8 51 5.4 41.7
01:10 1021 30.15 850 25.1 15.4 59.6 51 5.4 41.8
01:15 1021 30.15 850 25.1 15.2 59.4 53 5.7 42.3
01:20 1021 30.15 850 25.1 14.9 58.8 54 5.7 42.2
01:25 1021 30.15 850 25.1 14.7 58.5 54 5.5 41.9
01:30 1021 30.15 850 25.1 14.7 58.5 54 5.5 41.8
01:35 1021 30.15 850 25.1 14.8 58.6 53 5.4 41.8
01:40 1021 30.15 850 25.1 14.7 58.5 53 5.3 41.5
01:45 1021 30.15 850 25.1 14.8 58.6 53 5.3 41.6
01:50 1021 30.15 850 25.1 14.7 58.5 52 5.2 41.3
01:55 1021 30.15 850 25.1 14.7 58.5 53 5.3 41.6
02:00 1021 30.15 850 25.1 14.6 58.3 53 5.3 41.5
02:05 1021 30.15 850 25.1 14.5 58.1 54 5.3 41.6
02:10 1021 30.15 850 25.1 14.4 57.9 54 5.3 41.6
02:15 1021 30.15 850 25.1 14.3 57.7 54 5.2 41.4
02:20 1021 30.15 850 25.1 14.4 57.9 53 5 41.1
02:25 1021 30.15 850 25.1 14.4 58 53 5.1 41.1
02:30 1021 30.15 850 25.1 14.4 57.9 53 5 41
02:35 1021 30.15 850 25.1 14.2 57.6 55 5.3 41.5
02:40 1021 30.15 850 25.1 13.8 56.8 56 5.3 41.6
02:45 1021 30.15 850 25.1 13.8 56.8 55 5 41
02:50 1021 30.15 850 25.1 13.6 56.4 56 5 40.9
02:55 1021 30.15 850 25.1 13.6 56.4 55 4.7 40.4
03:00 1021 30.15 850 25.1 13.7 56.6 55 4.8 40.7
03:05 1021 30.15 850 25.1 13.5 56.3 56 4.9 40.8
03:10 1021 30.15 850 25.1 13.1 55.5 57 4.7 40.5
03:15 1021 30.15 850 25.1 12.9 55.1 57 4.6 40.2
03:20 1021 30.15 850 25.1 12.9 55.1 57 4.6 40.2
03:25 1021 30.15 850 25.1 12.9 55.2 56 4.4 40
03:30 1021 30.15 850 25.1 12.9 55.3 56 4.5 40.2
03:35 1021 30.15 850 25.1 12.9 55.2 55 4.2 39.5
03:40 1021 30.15 850 25.1 13.4 56 54 4.2 39.5
03:45 1021 30.15 850 25.1 13.5 56.2 54 4.3 39.8
03:50 1021 30.15 850 25.1 13.4 56.2 55 4.6 40.2
03:55 1021 30.15 850 25.1 13.3 56 55 4.7 40.4
04:00 1021 30.15 850 25.1 13.3 55.9 56 4.7 40.5
04:05 1021 30.15 850 25.1 13.2 55.7 56 4.8 40.6
04:10 1021 30.15 850 25.1 13.1 55.7 56 4.7 40.5
04:15 1021 30.15 850 25.1 13.1 55.5 56 4.5 40.2
04:20 1021 30.15 850 25.1 13.1 55.6 56 4.6 40.2
04:25 1021 30.15 850 25.1 13.1 55.6 56 4.5 40.2
04:30 1021 30.15 850 25.1 13.1 55.5 56 4.6 40.2
04:35 1021 30.15 850 25.1 12.9 55.2 57 4.6 40.2
04:40 1021 30.15 850 25.1 12.8 55 57 4.5 40.1
04:45 1021 30.15 850 25.1 12.8 55 56 4.4 39.8
04:50 1021 30.15 850 25.1 12.6 54.8 57 4.3 39.8
04:55 1021 30.15 850 25.1 12.6 54.6 57 4.3 39.7
05:00 1021 30.15 850 25.1 12.5 54.5 56 4.1 39.4
05:05 1021 30.15 850 25.1 12.5 54.4 56 4 39.1
05:10 1021 30.15 850 25.1 12.7 54.8 55 3.9 39
05:15 1021 30.15 850 25.1 12.8 55.1 54 3.9 39
05:20 1021 30.15 850 25.1 12.6 54.7 56 4 39.3
05:25 1021 30.15 850 25.1 12.7 54.8 54 3.8 38.8
05:30 1021 30.15 850 25.1 12.7 54.8 53 3.5 38.4
05:35 1021 30.15 850 25.1 12.8 55 54 3.7 38.7
05:40 1021 30.15 850 25.1 12.5 54.5 55 3.7 38.7
05:45 1021 30.15 850 25.1 12.4 54.2 55 3.7 38.7
05:50 1021 30.15 851 25.13 12.4 54.2 56 3.9 39.1
05:55 1021 30.15 851 25.13 12.3 54.2 56 3.9 39
06:00 1021 30.15 851 25.13 12.4 54.2 57 4 39.2
06:05 1021 30.15 851 25.13 12.3 54.1 58 4.3 39.7
06:10 1021 30.15 851 25.13 12.1 53.8 58 4.2 39.5
06:15 1021 30.15 851 25.13 12.1 53.8 58 4.2 39.5
06:20 1022 30.18 851 25.13 12 53.6 58 4.1 39.4
06:25 1022 30.18 851 25.13 11.7 53.1 59 4.1 39.5
06:30 1022 30.18 851 25.13 12 53.5 58 4 39.3
06:35 1022 30.18 851 25.13 12.4 54.3 57 4.3 39.7
06:40 1022 30.18 851 25.13 12.7 54.8 57 4.4 39.9
06:45 1022 30.18 851 25.13 12.7 54.8 57 4.5 40.2
06:50 1022 30.18 851 25.13 12.8 55.1 57 4.6 40.4
06:55 1022 30.18 851 25.13 12.9 55.3 58 4.8 40.7
07:00 1022 30.18 851 25.13 13 55.4 57 4.6 40.3
07:05 1022 30.18 851 25.13 13.1 55.6 56 4.6 40.2
07:10 1022 30.18 851 25.13 13.3 56 56 4.7 40.5
07:15 1022 30.18 851 25.13 13.7 56.6 54 4.7 40.4
07:20 1022 30.18 851 25.13 13.9 57 54 4.8 40.6
07:25 1022 30.18 851 25.13 14.2 57.6 52 4.7 40.4
07:30 1022 30.18 851 25.13 14.5 58 52 4.8 40.7
07:35 1022 30.18 851 25.13 14.8 58.7 50 4.6 40.3
07:40 1022 30.18 851 25.13 14.8 58.7 51 4.9 40.8
07:45 1022 30.18 851 25.13 14.9 58.9 52 5.2 41.3
07:50 1022 30.18 851 25.13 15.4 59.8 49 5 41
07:55 1022 30.18 851 25.13 15.8 60.4 47 4.7 40.4
08:00 1022 30.18 851 25.13 16.6 61.8 45 4.8 40.6
08:05 1022 30.18 851 25.13 17.1 62.7 43 4.5 40.2
08:10 1022 30.18 851 25.13 17.6 63.7 40 4 39.2
08:15 1022 30.18 851 25.13 18.2 64.8 40 4.7 40.4
08:20 1022 30.18 851 25.13 18.7 65.6 38 4.2 39.5
08:25 1022 30.18 851 25.13 18.9 66 37 4.2 39.6
08:30 1022 30.18 851 25.13 18.9 66.1 40 5.1 41.1
08:35 1022 30.18 851 25.13 19.3 66.8 38 4.8 40.7
08:40 1022 30.18 851 25.13 19.3 66.8 38 4.9 40.8
08:45 1022 30.18 851 25.13 19 66.3 39 4.9 40.8
08:50 1022 30.18 851 25.13 19.5 67.1 37 4.7 40.4
08:55 1022 30.18 851 25.13 20 67.9 34 3.9 39
09:00 1021 30.15 851 25.13 20.3 68.5 33 3.6 38.5
09:05 1021 30.15 851 25.13 20.2 68.4 34 3.9 39
09:10 1021 30.15 851 25.13 20.5 68.8 34 4.2 39.6
09:15 1021 30.15 851 25.13 20.9 69.5 33 4.3 39.7
09:20 1021 30.15 850 25.1 20.6 69 33 4.1 39.4
09:25 1021 30.15 850 25.1 21.2 70.1 32 4.2 39.6
09:30 1021 30.15 850 25.1 21.2 70.2 33 4.5 40
09:35 1021 30.15 850 25.1 21 69.7 34 4.5 40.2
09:40 1021 30.15 850 25.1 20.2 68.4 35 4.3 39.8
09:45 1021 30.15 850 25.1 20.8 69.4 33 4 39.3
09:50 1021 30.15 850 25.1 21.7 71 33 4.7 40.5
09:55 1021 30.15 850 25.1 21.2 70.1 32 4.2 39.6
10:00 1021 30.15 850 25.1 20.7 69.2 32 3.5 38.4
10:05 1021 30.15 850 25.1 20.9 69.5 33 4.1 39.3
10:10 1021 30.15 850 25.1 20.6 69.1 32 3.5 38.3
10:15 1021 30.15 850 25.1 21.5 70.6 32 4.1 39.3
10:20 1021 30.15 850 25.1 21.8 71.2 30 3.8 38.8
10:25 1021 30.15 850 25.1 22.6 72.6 29 3.7 38.6
10:30 1021 30.15 850 25.1 23.7 74.6 28 4.4 39.9
10:35 1021 30.15 850 25.1 23.7 74.7 28 4.5 40.1
10:40 1021 30.15 850 25.1 23.7 74.6 27 4 39.3
10:45 1021 30.15 850 25.1 24.1 75.4 27 4.2 39.6
10:50 1021 30.15 850 25.1 23.7 74.6 28 4.4 40
10:55 1021 30.15 850 25.1 23.9 74.9 27 3.8 38.8
11:00 1021 30.15 850 25.1 23.7 74.6 28 4.3 39.7
11:05 1021 30.15 850 25.1 23.4 74.2 29 4.5 40
11:10 1021 30.15 850 25.1 24.1 75.3 27 4.1 39.4
11:15 1021 30.15 850 25.1 24.6 76.2 27 4.6 40.2
11:20 1020 30.12 850 25.1 24.8 76.7 26 4.5 40
11:25 1020 30.12 850 25.1 25 77 25 4.1 39.4
11:30 1020 30.12 850 25.1 25.5 77.8 24 3.9 39
11:35 1020 30.12 850 25.1 25.9 78.7 24 4.2 39.6
11:40 1020 30.12 850 25.1 25.6 78.1 25 4.4 39.9
11:45 1020 30.12 850 25.1 24.6 76.4 26 3.9 39.1
11:50 1020 30.12 849 25.07 24.7 76.4 25 3.3 38
11:55 1020 30.12 849 25.07 24.8 76.6 25 3.6 38.4
12:00 1020 30.12 849 25.07 25.8 78.5 23 3.4 38
12:05 1020 30.12 849 25.07 26.2 79.1 23 3.7 38.7
12:10 1020 30.12 849 25.07 26.4 79.6 22 3.4 38
12:15 1020 30.12 849 25.07 25.4 77.8 24 3.4 38.2
12:20 1020 30.12 849 25.07 26 78.8 23 3.3 37.9
12:25 1020 30.12 849 25.07 26.1 78.9 21 2.7 36.8
12:30 1020 30.12 849 25.07 26.9 80.3 20 2.2 35.9
12:35 1020 30.12 849 25.07 26.5 79.7 22 3.2 37.7
12:40 1020 30.12 849 25.07 26 78.9 23 3.3 37.9
12:45 1020 30.12 849 25.07 26.9 80.5 21 2.9 37.3
12:50 1020 30.12 849 25.07 27 80.6 22 3.9 39
12:55 1020 30.12 849 25.07 27.2 80.9 22 3.8 38.8
13:00 1020 30.12 849 25.07 26.2 79.1 21 2.6 36.6
13:05 1020 30.12 849 25.07 26.7 80 19 1.6 34.9
13:10 1020 30.12 849 25.07 27.6 81.6 20 3.1 37.6
13:15 1020 30.12 849 25.07 27.4 81.4 20 3 37.4
13:20 1020 30.12 849 25.07 27.6 81.6 20 2.6 36.8
13:25 1020 30.12 849 25.07 26.6 79.9 21 2.9 37.1
13:30 1020 30.12 849 25.07 26 78.7 20 1.9 35.4
13:35 1019 30.09 849 25.07 26.6 79.8 20 2.2 36
13:40 1019 30.09 849 25.07 27.2 80.9 18 0.8 33.5
13:45 1019 30.09 849 25.07 27 80.6 18 1 33.8
13:50 1019 30.09 849 25.07 26.9 80.4 18 1.2 34.1
13:55 1019 30.09 848 25.04 27.2 80.9 18 1.4 34.6
14:00 1019 30.09 848 25.04 27.3 81.1 18 1.1 33.9
14:05 1019 30.09 848 25.04 28.1 82.6 17 0.8 33.5
14:10 1019 30.09 848 25.04 28 82.4 18 1.7 35
14:15 1019 30.09 848 25.04 28.3 82.9 18 1.8 35.3
14:20 1019 30.09 848 25.04 28.6 83.6 17 1.6 34.9
14:25 1019 30.09 848 25.04 28.5 83.4 16 0.6 33.1
14:30 1019 30.09 848 25.04 28.3 82.9 15 -0.6 31
14:35 1019 30.09 848 25.04 27.5 81.5 18 1.3 34.3
14:40 1019 30.09 848 25.04 28 82.4 17 0.6 33.2
14:45 1019 30.09 848 25.04 28.2 82.8 16 0 32.1
14:50 1019 30.09 848 25.04 27.7 81.8 15 -0.6 30.9
14:55 1019 30.09 848 25.04 28 82.4 16 -0.2 31.6
15:00 1019 30.09 848 25.04 28.7 83.7 17 1.5 34.6
15:05 1019 30.09 848 25.04 28.7 83.6 15 0 32.1
15:10 1018 30.06 848 25.04 28.5 83.3 15 -0.5 31.1
15:15 1018 30.06 848 25.04 28.8 83.8 16 0.6 33.1
15:20 1018 30.06 848 25.04 28.9 83.9 15 -0.4 31.2
15:25 1018 30.06 848 25.04 28.4 83.2 15 -0.3 31.5
15:30 1018 30.06 847 25.01 29 84.2 16 0.6 33.1
15:35 1018 30.06 847 25.01 28.5 83.2 14 -0.8 30.5
15:40 1018 30.06 847 25.01 28.7 83.6 15 -0.6 30.9
15:45 1018 30.06 847 25.01 28.6 83.6 16 0.6 33.1
15:50 1018 30.06 847 25.01 27.9 82.2 15 -0.6 30.9
15:55 1018 30.06 847 25.01 28.1 82.5 14 -1.2 29.9
16:00 1018 30.06 847 25.01 28.6 83.5 15 -0.6 30.9
16:05 1018 30.06 847 25.01 28.7 83.6 14 -0.8 30.6
16:10 1018 30.06 847 25.01 27.8 82.1 16 -0.4 31.3
16:15 1018 30.06 847 25.01 27.8 82 15 -0.7 30.8
16:20 1018 30.06 847 25.01 28.2 82.7 15 -0.9 30.4
16:25 1018 30.06 847 25.01 28.3 83 15 -0.6 30.9
16:30 1018 30.06 847 25.01 28 82.3 15 -1.2 29.9
16:35 1018 30.06 847 25.01 28.6 83.4 15 -0.6 30.9
16:40 1018 30.06 847 25.01 28.7 83.6 14 -0.8 30.5
16:45 1018 30.06 847 25.01 28.5 83.3 14 -1 30.2
16:50 1018 30.06 847 25.01 28.4 83.2 14 -1.1 29.9
16:55 1018 30.06 847 25.01 28.5 83.4 14 -0.8 30.6
17:00 1018 30.06 847 25.01 28 82.4 14 -1.4 29.4
17:05 1018 30.06 847 25.01 28.2 82.8 14 -1.6 29.2
17:10 1018 30.06 847 25.01 27.5 81.5 15 -1.4 29.6
17:15 1018 30.06 847 25.01 27.3 81.2 15 -1.7 29
17:20 1018 30.06 847 25.01 27.6 81.7 15 -1.1 30.1
17:25 1018 30.06 847 25.01 28 82.4 14 -1.3 29.6
17:30 1018 30.06 847 25.01 28.2 82.7 14 -1.1 30
17:35 1017 30.03 847 25.01 28.3 83 15 -0.7 30.7
17:40 1017 30.03 847 25.01 28.3 82.9 15 -0.8 30.6
17:45 1017 30.03 847 25.01 28.1 82.5 14 -1.9 28.6
17:50 1017 30.03 846 24.98 27.7 81.9 13 -2.7 27.2
17:55 1017 30.03 846 24.98 27.2 81 14 -2.4 27.7
18:00 1017 30.03 846 24.98 27 80.7 16 -1 30.2
18:05 1017 30.03 846 24.98 27.1 80.8 15 -1.3 29.6
18:10 1017 30.03 846 24.98 27.1 80.8 15 -1.5 29.3
18:15 1017 30.03 846 24.98 27.1 80.7 15 -1.3 29.6
18:20 1017 30.03 846 24.98 27 80.6 16 -0.8 30.6
18:25 1017 30.03 846 24.98 26.8 80.3 15 -1.4 29.5
18:30 1017 30.03 846 24.98 26.6 79.9 17 -0 31.9
18:35 1017 30.03 846 24.98 26.3 79.3 19 1.2 34.1
18:40 1017 30.03 846 24.98 25.9 78.6 19 0.7 33.2
18:45 1017 30.03 846 24.98 25.7 78.3 18 -0 32
18:50 1017 30.03 846 24.98 25.5 78 19 0.7 33.2
18:55 1017 30.03 846 24.98 25.4 77.7 20 0.8 33.5
19:00 1017 30.03 846 24.98 25.2 77.3 21 1.6 34.8
19:05 1017 30.03 846 24.98 24.8 76.7 22 1.6 35
19:10 1017 30.03 846 24.98 24.6 76.2 28 4.9 40.9
19:15 1017 30.03 846 24.98 24.1 75.3 31 6.1 42.9
19:20 1017 30.03 846 24.98 23.3 74 32 5.8 42.5
19:25 1017 30.03 846 24.98 22.6 72.6 29 4 39.2
19:30 1017 30.03 846 24.98 22.6 72.7 27 3 37.3
19:35 1017 30.03 846 24.98 22.6 72.6 28 3.3 37.9
19:40 1017 30.03 847 25.01 22.2 72 29 3.3 38
19:45 1017 30.03 847 25.01 21.9 71.5 28 3 37.4
19:50 1017 30.03 846 24.98 21.8 71.2 28 2.6 36.7
19:55 1017 30.03 846 24.98 21.7 71.1 27 2.4 36.3
20:00 1017 30.03 846 24.98 21.7 71.1 27 2.2 35.9
20:05 1017 30.03 846 24.98 21.8 71.2 27 2 35.7
20:10 1017 30.03 846 24.98 21.8 71.3 27 2.2 35.9
20:15 1017 30.03 847 25.01 21.7 71.1 27 2.2 36
20:20 1017 30.03 847 25.01 21.6 70.9 27 2 35.6
20:25 1017 30.03 847 25.01 21.7 71 27 2.2 36
20:30 1017 30.03 847 25.01 21.5 70.8 27 2.1 35.8
20:35 1017 30.03 847 25.01 21.7 71 27 1.9 35.5
20:40 1017 30.03 847 25.01 21.8 71.2 27 2 35.7
20:45 1017 30.03 847 25.01 21.6 70.9 27 2 35.7
20:50 1017 30.03 847 25.01 21.6 70.9 27 2.1 35.7
20:55 1018 30.06 847 25.01 21.5 70.8 27 1.8 35.3
21:00 1018 30.06 847 25.01 21.5 70.8 27 1.8 35.3
21:05 1018 30.06 847 25.01 21.7 71 26 1.7 35
21:10 1017 30.03 847 25.01 21.9 71.3 26 1.6 34.8
21:15 1017 30.03 847 25.01 22 71.5 26 1.5 34.8
21:20 1017 30.03 847 25.01 22 71.5 26 1.6 34.9
21:25 1017 30.03 847 25.01 21.9 71.5 26 1.6 34.8
21:30 1017 30.03 847 25.01 21.9 71.3 26 1.6 34.8
21:35 1017 30.03 847 25.01 21.7 71 26 1.5 34.7
21:40 1017 30.03 847 25.01 21.6 70.9 26 1.6 34.8
21:45 1017 30.03 847 25.01 21.5 70.8 26 1.5 34.7
21:50 1017 30.03 847 25.01 21.5 70.7 26 1.3 34.4
21:55 1017 30.03 847 25.01 21.5 70.7 26 1.4 34.5
22:00 1017 30.03 847 25.01 21.5 70.7 26 1.2 34.2
22:05 1017 30.03 847 25.01 21.5 70.6 26 1.3 34.4
22:10 1017 30.03 847 25.01 21.3 70.4 26 1.3 34.4
22:15 1017 30.03 847 25.01 21.3 70.3 26 1.3 34.4
22:20 1017 30.03 847 25.01 21.2 70.2 26 1.2 34.2
22:25 1017 30.03 846 24.98 21.3 70.3 26 1.1 33.9
22:30 1017 30.03 846 24.98 21.3 70.3 26 1.3 34.3
22:35 1017 30.03 846 24.98 21.1 70 26 1.3 34.3
22:40 1017 30.03 846 24.98 21.1 69.9 26 1.1 34.1
22:45 1017 30.03 846 24.98 21.1 70 26 0.9 33.6
22:50 1017 30.03 846 24.98 21.3 70.3 26 0.9 33.7
22:55 1017 30.03 846 24.98 21.2 70.1 26 0.9 33.6
23:00 1017 30.03 846 24.98 21.1 70 26 1 33.9
23:05 1017 30.03 846 24.98 21 69.8 26 1 33.8
23:10 1017 30.03 846 24.98 20.9 69.6 27 1.1 34
23:15 1017 30.03 846 24.98 20.8 69.4 27 1.1 34
23:20 1017 30.03 846 24.98 20.8 69.4 27 1 33.9
23:25 1017 30.03 846 24.98 20.9 69.7 27 1.2 34.1
23:30 1017 30.03 846 24.98 20.9 69.6 27 1.4 34.6
23:35 1017 30.03 846 24.98 20.7 69.3 27 1.2 34.2
23:40 1017 30.03 846 24.98 20.7 69.3 27 1.4 34.6
23:45 1017 30.03 846 24.98 20.5 68.9 28 1.4 34.6
23:50 1017 30.03 846 24.98 20.4 68.7 28 1.5 34.7
23:55 1017 30.03 846 24.98 20.3 68.5 28 1.4 34.6
24:00 1017 30.03 846 24.98 20.2 68.3 29 1.6 34.9